Time;durP1;ratioP1;P1;durP2;ratioP2;P2;SDS_P1;SDS_P2;PMS_P1;PMS_P2;Temp;Humidity;BMP_temperature;BMP_pressure;BME280_temperature;BME280_humidity;BME280_pressure;Samples;Min_cycle;Max_cycle;Signal;HPM_P1;HPM_P2
2021/01/07 00:01:15;;;;;;;0.10;0.10;;;;;;;2.51;100.00;100978.23;1738420;81;21150;-47
2021/01/07 00:03:43;;;;;;;0.47;0.30;;;;;;;2.52;100.00;100966.91;1770401;80;21210;-46
2021/01/07 00:06:12;;;;;;;1.55;0.45;;;;;;;2.53;100.00;100966.70;1787202;80;21340;-46
2021/01/07 00:08:40;;;;;;;0.20;0.20;;;;;;;2.53;100.00;100964.01;1787475;79;21150;-46
2021/01/07 00:11:08;;;;;;;0.17;0.17;;;;;;;2.53;100.00;100955.92;1768015;79;21159;-46
2021/01/07 00:13:36;;;;;;;0.40;0.40;;;;;;;2.52;100.00;100951.58;1787460;80;21147;-48
2021/01/07 00:16:05;;;;;;;0.08;0.08;;;;;;;2.52;100.00;100942.13;1774439;80;21130;-47
2021/01/07 00:18:33;;;;;;;0.53;0.53;;;;;;;2.52;100.00;100934.04;1768864;80;21147;-47
2021/01/07 00:21:01;;;;;;;0.85;0.85;;;;;;;2.52;100.00;100936.73;1765286;81;21191;-46
2021/01/07 00:23:29;;;;;;;0.15;0.15;;;;;;;2.52;100.00;100940.78;1754845;81;21011;-46
2021/01/07 00:25:58;;;;;;;0.23;0.23;;;;;;;2.51;100.00;100943.68;1785935;80;21143;-46
2021/01/07 00:28:25;;;;;;;0.00;0.00;;;;;;;2.50;100.00;100942.86;1740747;81;21074;-47
2021/01/07 00:30:53;;;;;;;0.53;0.53;;;;;;;2.52;100.00;100948.87;1734948;82;21395;-47
2021/01/07 00:33:20;;;;;;;0.00;0.00;;;;;;;2.53;100.00;100947.00;1734978;82;21117;-45
2021/01/07 00:35:47;;;;;;;0.30;0.30;;;;;;;2.53;100.00;100953.22;1725112;81;21189;-45
2021/01/07 00:38:15;;;;;;;0.37;0.37;;;;;;;2.52;100.00;100951.58;1737111;81;21194;-46
2021/01/07 00:40:42;;;;;;;2.12;0.62;;;;;;;2.53;100.00;100959.96;1765335;80;21098;-45
2021/01/07 00:43:10;;;;;;;1.92;0.30;;;;;;;2.54;100.00;100962.95;1756708;80;21522;-45
2021/01/07 00:45:37;;;;;;;0.00;0.00;;;;;;;2.55;100.00;100961.94;1756248;81;21213;-45
2021/01/07 00:48:06;;;;;;;0.17;0.17;;;;;;;2.56;100.00;100959.53;1758666;80;21141;-45
2021/01/07 00:50:34;;;;;;;0.53;0.53;;;;;;;2.56;100.00;100957.36;1756603;80;21115;-44
2021/01/07 00:53:02;;;;;;;0.50;0.50;;;;;;;2.55;100.00;100955.19;1756643;80;21142;-46
2021/01/07 00:55:30;;;;;;;0.10;0.10;;;;;;;2.58;100.00;100955.28;1758566;80;21134;-45
2021/01/07 00:58:00;;;;;;;0.20;0.20;;;;;;;2.58;100.00;100964.72;1777240;80;21428;-46
2021/01/07 01:00:28;;;;;;;0.88;0.45;;;;;;;2.57;100.00;100959.00;1780999;80;21135;-46
2021/01/07 01:02:56;;;;;;;2.02;1.12;;;;;;;2.57;100.00;100959.85;1785335;79;21143;-46
2021/01/07 01:05:24;;;;;;;1.05;0.30;;;;;;;2.57;100.00;100961.20;1760955;79;21138;-46
2021/01/07 01:07:52;;;;;;;0.47;0.47;;;;;;;2.59;100.00;100959.09;1767685;80;21150;-46
2021/01/07 01:10:20;;;;;;;0.10;0.10;;;;;;;2.58;100.00;100948.53;1756539;80;21549;-46
2021/01/07 01:12:47;;;;;;;0.35;0.30;;;;;;;2.57;100.00;100940.11;1769515;80;21162;-46
2021/01/07 01:15:17;;;;;;;0.95;0.95;;;;;;;2.57;100.00;100940.11;1778362;80;21126;-46
2021/01/07 01:17:45;;;;;;;0.35;0.35;;;;;;;2.58;100.00;100945.30;1756983;80;21130;-47
2021/01/07 01:20:13;;;;;;;1.02;0.33;;;;;;;2.58;100.00;100947.19;1765209;80;21501;-46
2021/01/07 01:22:42;;;;;;;0.10;0.10;;;;;;;2.58;100.00;100952.05;1787736;79;21584;-47
2021/01/07 01:25:11;;;;;;;0.70;0.55;;;;;;;2.58;100.00;100945.30;1786404;80;21002;-46
2021/01/07 01:27:41;;;;;;;0.45;0.45;;;;;;;2.59;100.00;100936.16;1756436;81;21447;-47
2021/01/07 01:30:11;;;;;;;0.10;0.10;;;;;;;2.59;100.00;100934.81;1764163;80;21127;-46
2021/01/07 01:32:42;;;;;;;0.30;0.30;;;;;;;2.62;100.00;100924.63;1787666;79;21126;-46
2021/01/07 01:35:11;;;;;;;2.52;0.50;;;;;;;2.61;100.00;100913.55;1776853;80;21108;-47
2021/01/07 01:37:43;;;;;;;0.20;0.20;;;;;;;2.62;100.00;100916.54;1758710;80;21719;-46
2021/01/07 01:40:12;;;;;;;0.05;0.05;;;;;;;2.62;100.00;100908.45;1767993;80;21203;-46
2021/01/07 01:42:40;;;;;;;0.20;0.20;;;;;;;2.59;100.00;100888.94;1757366;80;21162;-46
2021/01/07 01:45:09;;;;;;;0.20;0.20;;;;;;;2.59;100.00;100876.80;1768103;80;21723;-46
2021/01/07 01:47:36;;;;;;;0.13;0.13;;;;;;;2.57;100.00;100872.17;1787771;80;21372;-46
2021/01/07 01:50:07;;;;;;;1.55;1.40;;;;;;;2.57;100.00;100869.97;1778600;78;21073;-47
2021/01/07 01:52:36;;;;;;;0.00;0.00;;;;;;;2.56;100.00;100867.80;1759222;80;21090;-47
2021/01/07 01:55:05;;;;;;;0.00;0.00;;;;;;;2.54;100.00;100872.58;1728703;81;21624;-47
2021/01/07 01:57:33;;;;;;;3.85;0.88;;;;;;;2.54;100.00;100868.53;1757777;80;21158;-47
2021/01/07 02:00:01;;;;;;;0.00;0.00;;;;;;;2.56;100.00;100862.92;1727661;81;21146;-47
2021/01/07 02:02:32;;;;;;;3.10;1.12;;;;;;;2.55;100.00;100855.36;1735779;81;21168;-47
2021/01/07 02:05:00;;;;;;;2.05;0.98;;;;;;;2.55;100.00;100848.62;1755730;81;21159;-47
2021/01/07 02:07:27;;;;;;;0.35;0.17;;;;;;;2.54;100.00;100841.55;1756318;81;21161;-47
2021/01/07 02:09:56;;;;;;;2.30;0.53;;;;;;;2.56;100.00;100849.44;1731237;80;21130;-47
2021/01/07 02:12:23;;;;;;;0.40;0.40;;;;;;;2.55;100.00;100845.09;1728986;81;21138;-47
2021/01/07 02:14:50;;;;;;;0.25;0.25;;;;;;;2.55;100.00;100843.22;1770978;80;21423;-47
2021/01/07 02:17:18;;;;;;;0.45;0.40;;;;;;;2.55;100.00;100837.83;1780646;80;21617;-47
2021/01/07 02:19:45;;;;;;;0.10;0.10;;;;;;;2.56;100.00;100830.55;1787183;80;21438;-46
2021/01/07 02:22:14;;;;;;;0.23;0.23;;;;;;;2.57;100.00;100828.14;1776714;80;21553;-47
2021/01/07 02:24:42;;;;;;;1.20;0.80;;;;;;;2.55;100.00;100835.12;1761679;80;21115;-47
2021/01/07 02:27:09;;;;;;;0.75;0.75;;;;;;;2.55;100.00;100831.08;1787626;80;21151;-49
2021/01/07 02:29:39;;;;;;;0.70;0.45;;;;;;;2.56;100.00;100838.12;1787105;80;21139;-47
2021/01/07 02:32:08;;;;;;;0.23;0.23;;;;;;;2.56;100.00;100846.21;1787527;78;21150;-48
2021/01/07 02:34:35;;;;;;;0.37;0.37;;;;;;;2.55;100.00;100840.52;1766772;80;21143;-47
2021/01/07 02:37:04;;;;;;;0.40;0.40;;;;;;;2.54;100.00;100840.20;1757964;81;21159;-48
2021/01/07 02:39:32;;;;;;;0.20;0.20;;;;;;;2.54;100.00;100830.76;1735170;81;21537;-47
2021/01/07 02:41:59;;;;;;;0.90;0.90;;;;;;;2.53;100.00;100833.16;1756254;81;21170;-46
2021/01/07 02:44:26;;;;;;;0.55;0.55;;;;;;;2.55;100.00;100815.42;1757006;80;21190;-47
2021/01/07 02:46:54;;;;;;;1.02;1.02;;;;;;;2.53;100.00;100812.93;1756541;81;21134;-47
2021/01/07 02:49:22;;;;;;;0.55;0.55;;;;;;;2.53;100.00;100822.91;1784694;80;21147;-47
2021/01/07 02:51:49;;;;;;;2.15;2.05;;;;;;;2.53;100.00;100814.80;1777620;80;21205;-47
2021/01/07 02:54:16;;;;;;;3.25;1.62;;;;;;;2.52;100.00;100813.98;1756872;80;21158;-47
2021/01/07 02:56:44;;;;;;;0.20;0.20;;;;;;;2.53;100.00;100814.28;1787681;80;21129;-46
2021/01/07 02:59:11;;;;;;;0.33;0.33;;;;;;;2.53;100.00;100813.46;1787640;80;21150;-47
2021/01/07 03:01:39;;;;;;;1.25;1.15;;;;;;;2.52;100.00;100816.69;1781169;80;21143;-47
2021/01/07 03:04:06;;;;;;;0.23;0.15;;;;;;;2.53;100.00;100812.93;1758039;80;21555;-46
2021/01/07 03:06:34;;;;;;;3.60;1.00;;;;;;;2.53;100.00;100809.41;1732704;82;21456;-48
2021/01/07 03:09:01;;;;;;;0.53;0.53;;;;;;;2.53;100.00;100794.58;1732830;81;21201;-47
2021/01/07 03:11:29;;;;;;;3.58;1.30;;;;;;;2.52;100.00;100795.59;1753209;81;21177;-47
2021/01/07 03:13:57;;;;;;;1.45;1.35;;;;;;;2.53;100.00;100793.23;1732625;82;21410;-47
2021/01/07 03:16:24;;;;;;;1.07;1.07;;;;;;;2.51;100.00;100782.64;1732594;82;21589;-46
2021/01/07 03:18:52;;;;;;;0.93;0.93;;;;;;;2.50;100.00;100787.74;1732704;81;21470;-47
2021/01/07 03:21:19;;;;;;;0.82;0.82;;;;;;;2.48;100.00;100777.69;1732701;82;21110;-47
2021/01/07 03:23:46;;;;;;;0.28;0.28;;;;;;;2.47;100.00;100770.62;1747741;81;21462;-47
2021/01/07 03:26:15;;;;;;;0.55;0.55;;;;;;;2.46;100.00;100770.33;1738208;81;21137;-47
2021/01/07 03:28:43;;;;;;;0.72;0.72;;;;;;;2.44;100.00;100760.27;1732632;82;21317;-49
2021/01/07 03:31:10;;;;;;;0.28;0.28;;;;;;;2.42;100.00;100756.97;1732786;81;21153;-47
2021/01/07 03:33:38;;;;;;;1.15;0.85;;;;;;;2.41;100.00;100749.93;1757198;81;21106;-47
2021/01/07 03:36:06;;;;;;;0.00;0.00;;;;;;;2.39;100.00;100742.58;1762882;81;21102;-48
2021/01/07 03:38:33;;;;;;;0.10;0.10;;;;;;;2.36;100.00;100732.23;1763013;81;21145;-46
2021/01/07 03:41:01;;;;;;;0.00;0.00;;;;;;;2.32;100.00;100736.39;1762726;81;21138;-47
2021/01/07 03:43:28;;;;;;;0.80;0.33;;;;;;;2.28;100.00;100739.24;1762826;81;21185;-47
2021/01/07 03:45:56;;;;;;;0.20;0.20;;;;;;;2.25;100.00;100738.30;1762805;81;21190;-49
2021/01/07 03:48:23;;;;;;;0.55;0.55;;;;;;;2.23;100.00;100737.72;1754880;81;21119;-47
2021/01/07 03:50:51;;;;;;;0.55;0.55;;;;;;;2.20;100.00;100739.48;1732761;82;21204;-46
2021/01/07 03:53:18;;;;;;;0.35;0.35;;;;;;;2.16;100.00;100733.70;1747157;81;21025;-48
2021/01/07 03:55:45;;;;;;;0.28;0.28;;;;;;;2.14;100.00;100740.66;1763019;80;21118;-48
2021/01/07 03:58:13;;;;;;;0.20;0.20;;;;;;;2.13;100.00;100741.71;1763011;81;21106;-46
2021/01/07 04:00:40;;;;;;;0.10;0.10;;;;;;;2.13;100.00;100734.16;1745199;81;21158;-49
2021/01/07 04:03:08;;;;;;;0.20;0.20;;;;;;;2.12;100.00;100737.88;1737114;81;21160;-46
2021/01/07 04:05:35;;;;;;;0.47;0.20;;;;;;;2.10;100.00;100739.95;1732567;81;21138;-48
2021/01/07 04:08:03;;;;;;;0.37;0.37;;;;;;;2.09;100.00;100733.73;1732818;81;21138;-48
2021/01/07 04:10:30;;;;;;;0.47;0.47;;;;;;;2.08;100.00;100725.36;1738324;81;21125;-47
2021/01/07 04:12:58;;;;;;;0.00;0.00;;;;;;;2.06;100.00;100716.66;1750982;81;21531;-47
2021/01/07 04:15:25;;;;;;;0.10;0.10;;;;;;;2.03;100.00;100717.59;1733032;81;21480;-46
2021/01/07 04:17:52;;;;;;;0.03;0.03;;;;;;;2.01;100.00;100715.66;1732640;82;21161;-48
2021/01/07 04:20:19;;;;;;;0.37;0.37;;;;;;;2.00;100.00;100715.34;1741406;81;21153;-47
2021/01/07 04:22:47;;;;;;;0.10;0.10;;;;;;;2.01;100.00;100720.52;1762830;81;21130;-47
2021/01/07 04:25:15;;;;;;;0.20;0.20;;;;;;;2.01;100.00;100717.83;1762336;81;21102;-47
2021/01/07 04:27:42;;;;;;;0.37;0.37;;;;;;;2.00;100.00;100710.77;1761229;81;21161;-47
2021/01/07 04:30:11;;;;;;;0.35;0.23;;;;;;;2.00;100.00;100717.51;1762643;81;21157;-47
2021/01/07 04:32:38;;;;;;;2.17;1.75;;;;;;;1.99;100.00;100710.48;1762902;81;21166;-48
2021/01/07 04:35:06;;;;;;;0.62;0.62;;;;;;;1.99;100.00;100705.09;1762814;81;21114;-47
2021/01/07 04:37:34;;;;;;;0.68;0.33;;;;;;;1.98;100.00;100707.49;1756930;81;21114;-47
2021/01/07 04:40:02;;;;;;;0.13;0.13;;;;;;;1.97;100.00;100700.42;1742069;81;21147;-48
2021/01/07 04:42:29;;;;;;;0.90;0.40;;;;;;;1.97;100.00;100696.91;1762883;81;21165;-48
2021/01/07 04:44:57;;;;;;;0.30;0.30;;;;;;;1.94;100.00;100692.25;1753923;81;21126;-46
2021/01/07 04:47:24;;;;;;;0.10;0.10;;;;;;;1.93;100.00;100696.00;1732661;82;21117;-47
2021/01/07 04:49:51;;;;;;;0.08;0.08;;;;;;;1.93;100.00;100688.45;1732827;81;21450;-47
2021/01/07 04:52:19;;;;;;;0.10;0.10;;;;;;;1.93;100.00;100689.80;1732674;82;21210;-47
2021/01/07 04:54:47;;;;;;;0.05;0.05;;;;;;;1.93;100.00;100681.70;1739192;81;21162;-46
2021/01/07 04:57:16;;;;;;;8.05;1.00;;;;;;;1.93;100.00;100681.70;1731951;82;21137;-47
2021/01/07 04:59:43;;;;;;;0.10;0.10;;;;;;;1.92;100.00;100676.81;1734578;81;21679;-47
2021/01/07 05:02:14;;;;;;;0.03;0.03;;;;;;;1.91;100.00;100675.17;1749541;81;21121;-47
2021/01/07 05:04:51;;;;;;;0.37;0.30;;;;;;;1.89;100.00;100676.44;1702312;81;21225;-47
2021/01/07 05:07:22;;;;;;;0.35;0.35;;;;;;;1.86;100.00;100666.09;1732404;82;21169;-46
2021/01/07 05:10:01;;;;;;;2.77;0.33;;;;;;;1.84;100.00;100669.53;1732769;81;21177;-48
2021/01/07 05:12:28;;;;;;;1.17;0.35;;;;;;;1.82;100.00;100654.09;1744430;81;21146;-46
2021/01/07 05:14:56;;;;;;;0.37;0.37;;;;;;;1.80;100.00;100646.21;1762884;81;21110;-47
2021/01/07 05:17:23;;;;;;;0.55;0.55;;;;;;;1.80;100.00;100645.39;1762952;81;21122;-46
2021/01/07 05:19:51;;;;;;;0.23;0.23;;;;;;;1.78;100.00;100647.47;1760565;81;21447;-47
2021/01/07 05:22:19;;;;;;;0.53;0.20;;;;;;;1.77;100.00;100648.00;1762970;81;21730;-46
2021/01/07 05:24:51;;;;;;;0.45;0.37;;;;;;;1.77;100.00;100645.30;1756522;81;21133;-48
2021/01/07 05:27:21;;;;;;;0.10;0.10;;;;;;;1.77;100.00;100640.44;1732813;82;22488;-48
2021/01/07 05:29:48;;;;;;;0.30;0.30;;;;;;;1.78;100.00;100643.43;1732975;81;21288;-46
2021/01/07 05:32:16;;;;;;;0.30;0.30;;;;;;;1.76;100.00;100632.89;1751513;81;21158;-47
2021/01/07 05:34:50;;;;;;;0.62;0.62;;;;;;;1.77;100.00;100637.75;1724702;82;21592;-47
2021/01/07 05:37:19;;;;;;;0.20;0.20;;;;;;;1.76;100.00;100635.58;1732811;82;21388;-47
2021/01/07 05:39:47;;;;;;;0.10;0.10;;;;;;;1.75;100.00;100635.78;1733242;81;21117;-46
2021/01/07 05:42:15;;;;;;;0.90;0.90;;;;;;;1.75;100.00;100627.70;1732579;82;21395;-47
2021/01/07 05:44:47;;;;;;;0.23;0.23;;;;;;;1.76;100.00;100631.54;1732391;82;21149;-47
2021/01/07 05:47:30;;;;;;;0.10;0.10;;;;;;;1.76;100.00;100632.89;1748789;81;21107;-46
2021/01/07 05:49:57;;;;;;;0.37;0.37;;;;;;;1.78;100.00;100625.92;1739721;81;21201;-46
2021/01/07 05:55:07;;;;;;;2.75;1.17;;;;;;;1.82;100.00;100621.75;1864401;76;29041;-44
2021/01/07 05:57:36;;;;;;;2.27;0.33;;;;;;;1.76;100.00;100620.77;1758876;81;21107;-44
2021/01/07 06:00:14;;;;;;;0.10;0.10;;;;;;;1.76;100.00;100619.41;1783650;80;21167;-44
2021/01/07 06:02:42;;;;;;;0.42;0.42;;;;;;;1.77;100.00;100618.89;1772033;80;21671;-45
2021/01/07 06:05:12;;;;;;;0.00;0.00;;;;;;;1.78;100.00;100617.83;1777523;80;21139;-44
2021/01/07 06:07:40;;;;;;;0.37;0.37;;;;;;;1.77;100.00;100607.58;1733043;82;21630;-45
2021/01/07 06:10:09;;;;;;;1.60;0.20;;;;;;;1.75;100.00;100612.36;1754152;80;21154;-45
2021/01/07 06:12:37;;;;;;;0.80;0.40;;;;;;;1.74;100.00;100617.98;1741542;80;21510;-44
2021/01/07 06:15:11;;;;;;;0.47;0.47;;;;;;;1.73;100.00;100611.74;1737688;82;21170;-44
2021/01/07 06:17:38;;;;;;;0.45;0.45;;;;;;;1.75;100.00;100611.53;1712068;82;21139;-44
2021/01/07 06:20:14;;;;;;;0.00;0.00;;;;;;;1.74;100.00;100608.55;1715157;82;21100;-45
2021/01/07 06:22:53;;;;;;;0.23;0.23;;;;;;;1.72;100.00;100606.88;1769628;81;21208;-44
2021/01/07 06:25:22;;;;;;;0.47;0.47;;;;;;;1.75;100.00;100607.50;1769617;79;21185;-45
2021/01/07 06:27:51;;;;;;;2.37;1.17;;;;;;;1.76;100.00;100601.91;1770471;80;20999;-45
2021/01/07 06:30:23;;;;;;;0.42;0.20;;;;;;;1.76;100.00;100601.08;1758660;80;21150;-44
2021/01/07 06:33:03;;;;;;;0.23;0.23;;;;;;;1.75;100.00;100604.80;1781382;78;21031;-44
2021/01/07 06:35:38;;;;;;;0.47;0.20;;;;;;;1.74;100.00;100599.94;1778852;80;21123;-45
2021/01/07 06:38:06;;;;;;;0.00;0.00;;;;;;;1.74;100.00;100604.52;1772736;80;21569;-45
2021/01/07 06:40:41;;;;;;;0.00;0.00;;;;;;;1.71;100.00;100596.34;1745937;81;21443;-44
2021/01/07 06:43:13;;;;;;;0.10;0.10;;;;;;;1.71;100.00;100603.89;1769111;81;21141;-44
2021/01/07 06:45:50;;;;;;;0.10;0.10;;;;;;;1.72;100.00;100605.53;1783928;79;21679;-45
2021/01/07 06:48:30;;;;;;;0.10;0.10;;;;;;;1.74;100.00;100607.20;1786385;79;21165;-45
2021/01/07 06:50:59;;;;;;;0.60;0.60;;;;;;;1.75;100.00;100605.63;1750774;80;21212;-45
2021/01/07 06:53:27;;;;;;;2.70;1.30;;;;;;;1.76;100.00;100604.59;1762070;80;21150;-44
2021/01/07 06:56:18;;;;;;;0.10;0.10;;;;;;;1.78;100.00;100599.82;1769195;80;21403;-46
2021/01/07 06:58:46;;;;;;;1.87;0.65;;;;;;;1.79;100.00;100597.95;1788319;80;21241;-45
2021/01/07 07:01:16;;;;;;;0.47;0.47;;;;;;;1.80;100.00;100596.36;1780727;80;21088;-45
2021/01/07 07:03:52;;;;;;;0.57;0.57;;;;;;;1.83;100.00;100591.05;1782538;80;22047;-46
2021/01/07 07:06:25;;;;;;;0.65;0.60;;;;;;;1.84;100.00;100592.73;1747452;80;21151;-47
2021/01/07 07:08:53;;;;;;;0.75;0.75;;;;;;;1.86;100.00;100585.25;1749921;80;21142;-46
2021/01/07 07:11:31;;;;;;;0.50;0.50;;;;;;;1.86;100.00;100582.56;1777358;80;21119;-45
2021/01/07 07:13:59;;;;;;;0.60;0.60;;;;;;;1.87;100.00;100575.59;1760223;80;21194;-46
2021/01/07 07:16:32;;;;;;;0.80;0.80;;;;;;;1.89;100.00;100576.20;1763362;80;21139;-45
2021/01/07 07:19:00;;;;;;;0.37;0.37;;;;;;;1.92;100.00;100578.97;1775974;80;21154;-46
2021/01/07 07:21:28;;;;;;;0.45;0.45;;;;;;;1.95;100.00;100577.19;1776200;80;21135;-46
2021/01/07 07:24:09;;;;;;;0.42;0.42;;;;;;;1.97;100.00;100572.41;1774617;80;21107;-45
2021/01/07 07:26:40;;;;;;;0.15;0.15;;;;;;;2.00;100.00;100570.61;1771139;80;21456;-46
2021/01/07 07:29:16;;;;;;;1.37;1.32;;;;;;;2.07;100.00;100564.64;1835027;76;29056;-45
2021/01/07 07:31:46;;;;;;;1.17;1.07;;;;;;;2.07;100.00;100570.03;1781149;80;21134;-47
2021/01/07 07:34:16;;;;;;;0.65;0.65;;;;;;;2.10;100.00;100570.97;1786077;78;21157;-47
2021/01/07 07:36:43;;;;;;;1.55;0.93;;;;;;;2.14;100.00;100573.50;1786077;80;21145;-48
2021/01/07 07:39:10;;;;;;;1.42;1.00;;;;;;;2.19;100.00;100573.38;1785894;80;21106;-47
2021/01/07 07:41:43;;;;;;;2.42;1.87;;;;;;;2.21;100.00;100568.59;1779472;80;21094;-47
2021/01/07 07:44:14;;;;;;;0.20;0.20;;;;;;;2.25;100.00;100568.43;1784379;80;21158;-45
2021/01/07 07:46:41;;;;;;;0.70;0.70;;;;;;;2.26;100.00;100569.56;1786118;80;21126;-46
2021/01/07 07:49:12;;;;;;;0.50;0.50;;;;;;;2.27;100.00;100559.59;1754936;80;21192;-45
2021/01/07 07:51:40;;;;;;;0.30;0.20;;;;;;;2.28;100.00;100568.01;1785845;80;21193;-44
2021/01/07 07:54:11;;;;;;;0.15;0.15;;;;;;;2.30;100.00;100563.20;1785283;78;21075;-46
2021/01/07 07:56:40;;;;;;;0.25;0.25;;;;;;;2.31;100.00;100563.52;1784475;80;21133;-46
2021/01/07 07:59:10;;;;;;;1.65;0.75;;;;;;;2.31;100.00;100562.16;1785585;78;21174;-47
2021/01/07 08:01:43;;;;;;;0.37;0.37;;;;;;;2.32;100.00;100564.62;1767364;80;21154;-46
2021/01/07 08:04:12;;;;;;;1.72;1.60;;;;;;;2.34;100.00;100553.09;1782911;80;21110;-46
2021/01/07 08:06:39;;;;;;;0.10;0.10;;;;;;;2.38;100.00;100549.97;1785840;80;21133;-46
2021/01/07 08:09:09;;;;;;;1.65;0.80;;;;;;;2.40;100.00;100543.31;1785992;80;21110;-45
2021/01/07 08:11:47;;;;;;;0.20;0.20;;;;;;;2.40;100.00;100547.36;1786201;80;21449;-46
2021/01/07 08:14:19;;;;;;;0.20;0.20;;;;;;;2.43;100.00;100541.51;1783989;79;21635;-45
2021/01/07 08:16:59;;;;;;;0.60;0.60;;;;;;;2.47;100.00;100525.16;1857841;76;29055;-44
2021/01/07 08:19:33;;;;;;;0.10;0.10;;;;;;;2.41;100.00;100535.50;1830138;77;21115;-44
2021/01/07 08:22:01;;;;;;;0.75;0.75;;;;;;;2.38;100.00;100531.91;1830553;77;21122;-44
2021/01/07 08:24:29;;;;;;;0.68;0.68;;;;;;;2.36;100.00;100522.69;1784473;80;21127;-45
2021/01/07 08:27:15;;;;;;;0.10;0.10;;;;;;;2.38;100.00;100514.91;1786866;78;21153;-45
2021/01/07 08:29:49;;;;;;;0.08;0.08;;;;;;;2.38;100.00;100508.98;1785027;80;21565;-44
2021/01/07 08:32:21;;;;;;;0.55;0.55;;;;;;;2.38;100.00;100504.13;1761343;80;21135;-45
2021/01/07 08:34:49;;;;;;;1.20;1.15;;;;;;;2.38;100.00;100506.83;1753652;81;21304;-45
2021/01/07 08:37:21;;;;;;;0.78;0.78;;;;;;;2.39;100.00;100507.93;1754340;81;21190;-46
2021/01/07 08:39:47;;;;;;;0.40;0.40;;;;;;;2.41;100.00;100501.80;1752187;81;21130;-46
2021/01/07 08:42:15;;;;;;;1.57;1.47;;;;;;;2.43;100.00;100495.66;1753583;81;21155;-46
2021/01/07 08:44:44;;;;;;;0.40;0.40;;;;;;;2.43;100.00;100480.82;1779392;80;21424;-47
2021/01/07 08:47:25;;;;;;;0.20;0.20;;;;;;;2.45;100.00;100473.34;1769750;80;21039;-47
2021/01/07 08:50:08;;;;;;;0.10;0.10;;;;;;;2.47;100.00;100463.12;1778604;80;21159;-47
2021/01/07 08:52:56;;;;;;;1.25;0.40;;;;;;;2.48;100.00;100461.27;1771413;80;21547;-47
2021/01/07 08:55:49;;;;;;;2.30;1.52;;;;;;;2.51;100.00;100453.53;1781274;80;21163;-47
2021/01/07 08:58:26;;;;;;;0.20;0.20;;;;;;;2.52;100.00;100445.76;1771755;80;21136;-47
2021/01/07 09:00:53;;;;;;;1.07;0.98;;;;;;;2.52;100.00;100429.58;1755116;80;21100;-47
2021/01/07 09:03:21;;;;;;;1.67;1.35;;;;;;;2.54;100.00;100425.28;1762703;81;21131;-47
2021/01/07 09:05:50;;;;;;;0.72;0.72;;;;;;;2.56;100.00;100421.30;1771513;79;21151;-48
2021/01/07 09:08:17;;;;;;;0.65;0.35;;;;;;;2.59;100.00;100419.49;1728811;81;21134;-48
2021/01/07 09:10:45;;;;;;;0.10;0.10;;;;;;;2.61;100.00;100415.23;1713588;79;21146;-47
2021/01/07 09:13:22;;;;;;;0.93;0.82;;;;;;;2.60;100.00;100413.59;1783229;79;21540;-47
2021/01/07 09:15:50;;;;;;;2.12;1.10;;;;;;;2.58;100.00;100407.60;1762673;81;21207;-48
2021/01/07 09:18:18;;;;;;;0.35;0.35;;;;;;;2.59;100.00;100417.33;1770322;79;21135;-47
2021/01/07 09:20:47;;;;;;;1.55;1.45;;;;;;;2.58;100.00;100403.02;1787181;79;21127;-47
2021/01/07 09:23:15;;;;;;;2.45;0.40;;;;;;;2.61;100.00;100399.58;1765082;79;21179;-47
2021/01/07 09:25:44;;;;;;;0.20;0.20;;;;;;;2.59;100.00;100396.56;1762589;81;21138;-47
2021/01/07 09:28:12;;;;;;;8.90;0.93;;;;;;;2.58;100.00;100385.48;1791557;78;21498;-47
2021/01/07 09:30:40;;;;;;;1.30;0.80;;;;;;;2.56;100.00;100386.23;1765078;80;21473;-47
2021/01/07 09:33:08;;;;;;;0.78;0.78;;;;;;;2.55;100.00;100383.25;1764193;80;21119;-47
2021/01/07 09:35:37;;;;;;;0.62;0.62;;;;;;;2.55;100.00;100374.34;1762266;80;21147;-48
2021/01/07 09:38:05;;;;;;;0.53;0.53;;;;;;;2.52;100.00;100371.58;1762128;81;21151;-47
2021/01/07 09:40:33;;;;;;;0.42;0.35;;;;;;;2.49;100.00;100361.75;1774511;80;21438;-48
2021/01/07 09:43:01;;;;;;;0.20;0.20;;;;;;;2.48;100.00;100354.20;1766514;80;21964;-47
2021/01/07 09:45:29;;;;;;;0.30;0.30;;;;;;;2.45;100.00;100365.45;1762698;80;21128;-47
2021/01/07 09:47:57;;;;;;;0.20;0.20;;;;;;;2.45;100.00;100374.04;1794509;78;21395;-46
2021/01/07 09:50:27;;;;;;;0.15;0.15;;;;;;;2.44;100.00;100373.22;1750955;80;21143;-46
2021/01/07 09:52:55;;;;;;;0.00;0.00;;;;;;;2.41;100.00;100360.20;1787551;79;21123;-47
2021/01/07 09:55:23;;;;;;;0.68;0.68;;;;;;;2.40;100.00;100353.17;1784356;79;21147;-46
2021/01/07 09:57:51;;;;;;;0.08;0.08;;;;;;;2.40;100.00;100345.08;1784375;80;21486;-48
2021/01/07 10:00:20;;;;;;;0.10;0.10;;;;;;;2.40;100.00;100346.93;1784069;79;21277;-47
2021/01/07 10:02:47;;;;;;;0.03;0.03;;;;;;;2.41;100.00;100337.27;1787803;79;21138;-47
2021/01/07 10:05:15;;;;;;;1.12;1.02;;;;;;;2.43;100.00;100335.18;1786342;79;21581;-46
2021/01/07 10:07:42;;;;;;;0.98;0.65;;;;;;;2.45;100.00;100330.38;1799438;79;21123;-46
2021/01/07 10:10:10;;;;;;;0.10;0.10;;;;;;;2.46;100.00;100318.53;1798328;79;21131;-47
2021/01/07 10:12:38;;;;;;;0.57;0.57;;;;;;;2.47;100.00;100308.03;1749484;81;21127;-47
2021/01/07 10:15:07;;;;;;;1.17;1.07;;;;;;;2.50;100.00;100295.45;1782580;80;21217;-47
2021/01/07 10:17:35;;;;;;;0.40;0.40;;;;;;;2.54;100.00;100289.88;1753600;80;21163;-47
2021/01/07 10:20:06;;;;;;;1.30;0.65;;;;;;;2.57;100.00;100289.44;1777823;80;21143;-47
2021/01/07 10:22:36;;;;;;;1.55;1.45;;;;;;;2.62;100.00;100289.25;1773993;80;21912;-47
2021/01/07 10:25:06;;;;;;;1.70;0.88;;;;;;;2.63;100.00;100280.13;1762629;79;21136;-47
2021/01/07 10:27:33;;;;;;;0.10;0.10;;;;;;;2.63;100.00;100272.03;1749481;82;21132;-47
2021/01/07 10:30:01;;;;;;;0.10;0.10;;;;;;;2.66;100.00;100264.28;1756165;80;21171;-47
2021/01/07 10:32:29;;;;;;;0.13;0.13;;;;;;;2.68;100.00;100254.08;1786454;80;21155;-48
2021/01/07 10:34:56;;;;;;;0.62;0.62;;;;;;;2.71;100.00;100254.96;1743186;81;21135;-47
2021/01/07 10:37:24;;;;;;;0.10;0.10;;;;;;;2.74;100.00;100246.92;1743769;81;21138;-47
2021/01/07 10:39:53;;;;;;;1.65;0.55;;;;;;;2.76;100.00;100234.84;1752896;81;21230;-47
2021/01/07 10:44:58;;;;;;;0.42;0.17;;;;;;;2.88;100.00;100224.07;1864359;76;29132;-45
2021/01/07 10:47:25;;;;;;;0.20;0.20;;;;;;;2.84;100.00;100219.37;1824675;78;21079;-45
2021/01/07 10:49:53;;;;;;;0.35;0.35;;;;;;;2.85;100.00;100215.62;1742185;78;21173;-46
2021/01/07 10:53:01;;;;;;;0.10;0.10;;;;;;;2.82;100.00;100214.22;1793044;78;21111;-47
2021/01/07 10:55:30;;;;;;;0.00;0.00;;;;;;;2.79;100.00;100211.97;1758001;80;21130;-46
2021/01/07 10:58:12;;;;;;;0.42;0.42;;;;;;;2.74;100.00;100203.22;1807370;77;21116;-46
2021/01/07 11:01:07;;;;;;;0.67;0.37;;;;;;;2.73;100.00;100202.13;1815788;78;21573;-46
2021/01/07 11:03:55;;;;;;;0.35;0.35;;;;;;;2.68;100.00;100192.03;1823953;77;21134;-47
2021/01/07 11:06:25;;;;;;;0.10;0.10;;;;;;;2.66;100.00;100193.32;1824082;77;21055;-45
2021/01/07 11:09:13;;;;;;;1.17;0.53;;;;;;;2.65;100.00;100186.30;1824670;78;21122;-47
2021/01/07 11:11:49;;;;;;;0.00;0.00;;;;;;;2.65;100.00;100175.50;1820443;78;21162;-47
2021/01/07 11:14:47;;;;;;;0.00;0.00;;;;;;;2.64;100.00;100163.05;1816975;76;29169;-47
2021/01/07 11:17:24;;;;;;;0.60;0.40;;;;;;;2.62;100.00;100156.55;1829147;77;38534;-48
2021/01/07 11:19:52;;;;;;;0.30;0.30;;;;;;;2.59;100.00;100149.72;1789946;78;21112;-49
2021/01/07 11:22:28;;;;;;;0.37;0.37;;;;;;;2.65;100.00;100143.13;1787019;80;21179;-47
2021/01/07 11:24:59;;;;;;;0.42;0.30;;;;;;;2.65;100.00;100130.98;1791264;77;21179;-47
2021/01/07 11:27:27;;;;;;;0.20;0.20;;;;;;;2.66;100.00;100128.57;1818108;78;21117;-46
2021/01/07 11:29:54;;;;;;;1.55;0.47;;;;;;;2.67;100.00;100122.10;1789343;78;21165;-47
2021/01/07 11:32:22;;;;;;;0.00;0.00;;;;;;;2.68;100.00;100112.44;1815561;78;21489;-47
2021/01/07 11:34:49;;;;;;;0.85;0.17;;;;;;;2.69;100.00;100103.81;1804156;78;21156;-47
2021/01/07 11:37:37;;;;;;;0.20;0.10;;;;;;;2.67;100.00;100095.97;1700352;81;21151;-47
2021/01/07 11:40:15;;;;;;;0.28;0.28;;;;;;;2.66;100.00;100090.80;1748371;81;21525;-47
2021/01/07 11:43:00;;;;;;;0.13;0.13;;;;;;;2.64;100.00;100086.98;1751515;81;21608;-47